sensor_id;sensor_type;location;lat;lon;timestamp;P1;durP1;ratioP1;P2;durP2;ratioP2
21681;SDS011;11002;48.256;10.084;2023-05-23T00:01:26;12.88;;;10.80;;
21681;SDS011;11002;48.256;10.084;2023-05-23T00:03:55;14.55;;;11.35;;
21681;SDS011;11002;48.256;10.084;2023-05-23T00:06:23;12.95;;;11.55;;
21681;SDS011;11002;48.256;10.084;2023-05-23T00:08:51;17.13;;;12.10;;
21681;SDS011;11002;48.256;10.084;2023-05-23T00:11:18;14.40;;;12.00;;
21681;SDS011;11002;48.256;10.084;2023-05-23T00:13:52;16.08;;;13.05;;
21681;SDS011;11002;48.256;10.084;2023-05-23T00:16:20;13.43;;;11.60;;
21681;SDS011;11002;48.256;10.084;2023-05-23T00:18:48;14.43;;;12.23;;
21681;SDS011;11002;48.256;10.084;2023-05-23T00:21:16;14.70;;;11.35;;
21681;SDS011;11002;48.256;10.084;2023-05-23T00:23:43;13.20;;;11.38;;
21681;SDS011;11002;48.256;10.084;2023-05-23T00:26:10;14.10;;;11.13;;
21681;SDS011;11002;48.256;10.084;2023-05-23T00:28:43;14.50;;;12.27;;
21681;SDS011;11002;48.256;10.084;2023-05-23T00:31:11;15.05;;;11.35;;
21681;SDS011;11002;48.256;10.084;2023-05-23T00:33:39;13.25;;;10.98;;
21681;SDS011;11002;48.256;10.084;2023-05-23T00:36:06;14.82;;;11.63;;
21681;SDS011;11002;48.256;10.084;2023-05-23T00:38:33;15.63;;;11.80;;
21681;SDS011;11002;48.256;10.084;2023-05-23T00:41:00;15.70;;;12.18;;
21681;SDS011;11002;48.256;10.084;2023-05-23T00:43:28;14.20;;;11.80;;
21681;SDS011;11002;48.256;10.084;2023-05-23T00:45:55;14.10;;;11.90;;
21681;SDS011;11002;48.256;10.084;2023-05-23T00:48:25;12.93;;;11.35;;
21681;SDS011;11002;48.256;10.084;2023-05-23T00:50:52;16.58;;;12.52;;
21681;SDS011;11002;48.256;10.084;2023-05-23T00:53:21;14.55;;;12.50;;
21681;SDS011;11002;48.256;10.084;2023-05-23T00:55:48;20.42;;;11.73;;
21681;SDS011;11002;48.256;10.084;2023-05-23T00:58:16;12.73;;;11.43;;
21681;SDS011;11002;48.256;10.084;2023-05-23T01:00:43;14.77;;;11.50;;
21681;SDS011;11002;48.256;10.084;2023-05-23T01:03:11;12.85;;;10.63;;
21681;SDS011;11002;48.256;10.084;2023-05-23T01:05:43;12.60;;;10.43;;
21681;SDS011;11002;48.256;10.084;2023-05-23T01:08:11;16.52;;;11.75;;
21681;SDS011;11002;48.256;10.084;2023-05-23T01:10:39;14.52;;;12.32;;
21681;SDS011;11002;48.256;10.084;2023-05-23T01:13:10;15.50;;;12.10;;
21681;SDS011;11002;48.256;10.084;2023-05-23T01:15:46;15.45;;;12.88;;
21681;SDS011;11002;48.256;10.084;2023-05-23T01:18:20;16.85;;;12.85;;
21681;SDS011;11002;48.256;10.084;2023-05-23T01:20:54;17.77;;;12.25;;
21681;SDS011;11002;48.256;10.084;2023-05-23T01:23:33;17.50;;;12.43;;
21681;SDS011;11002;48.256;10.084;2023-05-23T01:26:17;15.45;;;12.77;;
21681;SDS011;11002;48.256;10.084;2023-05-23T01:28:58;15.32;;;11.43;;
21681;SDS011;11002;48.256;10.084;2023-05-23T01:31:35;13.75;;;12.27;;
21681;SDS011;11002;48.256;10.084;2023-05-23T01:34:05;13.93;;;11.05;;
21681;SDS011;11002;48.256;10.084;2023-05-23T01:36:34;13.32;;;11.93;;
21681;SDS011;11002;48.256;10.084;2023-05-23T01:39:06;15.77;;;13.15;;
21681;SDS011;11002;48.256;10.084;2023-05-23T01:41:33;14.43;;;12.90;;
21681;SDS011;11002;48.256;10.084;2023-05-23T01:44:02;14.98;;;12.05;;
21681;SDS011;11002;48.256;10.084;2023-05-23T01:46:30;15.23;;;12.32;;
21681;SDS011;11002;48.256;10.084;2023-05-23T01:48:59;14.77;;;12.13;;
21681;SDS011;11002;48.256;10.084;2023-05-23T01:51:31;12.35;;;10.40;;
21681;SDS011;11002;48.256;10.084;2023-05-23T01:54:00;13.73;;;9.93;;
21681;SDS011;11002;48.256;10.084;2023-05-23T01:56:27;13.73;;;11.02;;
21681;SDS011;11002;48.256;10.084;2023-05-23T01:58:55;14.63;;;12.00;;
21681;SDS011;11002;48.256;10.084;2023-05-23T02:01:24;16.02;;;11.75;;
21681;SDS011;11002;48.256;10.084;2023-05-23T02:03:51;15.05;;;11.77;;
21681;SDS011;11002;48.256;10.084;2023-05-23T02:06:19;13.60;;;12.13;;
21681;SDS011;11002;48.256;10.084;2023-05-23T02:08:47;12.82;;;11.38;;
21681;SDS011;11002;48.256;10.084;2023-05-23T02:11:14;14.73;;;12.48;;
21681;SDS011;11002;48.256;10.084;2023-05-23T02:13:41;14.80;;;11.77;;
21681;SDS011;11002;48.256;10.084;2023-05-23T02:16:08;14.60;;;11.40;;
21681;SDS011;11002;48.256;10.084;2023-05-23T02:18:37;13.50;;;11.65;;
21681;SDS011;11002;48.256;10.084;2023-05-23T02:21:04;14.38;;;11.07;;
21681;SDS011;11002;48.256;10.084;2023-05-23T02:23:32;13.20;;;10.93;;
21681;SDS011;11002;48.256;10.084;2023-05-23T02:25:59;14.07;;;11.60;;
21681;SDS011;11002;48.256;10.084;2023-05-23T02:28:26;15.80;;;11.63;;
21681;SDS011;11002;48.256;10.084;2023-05-23T02:30:53;16.85;;;12.90;;
21681;SDS011;11002;48.256;10.084;2023-05-23T02:33:21;14.82;;;12.15;;
21681;SDS011;11002;48.256;10.084;2023-05-23T02:35:51;16.02;;;12.15;;
21681;SDS011;11002;48.256;10.084;2023-05-23T02:38:19;15.25;;;12.93;;
21681;SDS011;11002;48.256;10.084;2023-05-23T02:40:46;17.00;;;12.70;;
21681;SDS011;11002;48.256;10.084;2023-05-23T02:43:16;15.50;;;12.45;;
21681;SDS011;11002;48.256;10.084;2023-05-23T02:45:43;17.70;;;11.95;;
21681;SDS011;11002;48.256;10.084;2023-05-23T02:48:10;15.85;;;11.52;;
21681;SDS011;11002;48.256;10.084;2023-05-23T02:50:38;14.15;;;11.13;;
21681;SDS011;11002;48.256;10.084;2023-05-23T02:53:06;14.75;;;11.45;;
21681;SDS011;11002;48.256;10.084;2023-05-23T02:55:34;13.85;;;11.45;;
21681;SDS011;11002;48.256;10.084;2023-05-23T02:58:02;15.35;;;11.93;;
21681;SDS011;11002;48.256;10.084;2023-05-23T03:00:31;14.48;;;11.63;;
21681;SDS011;11002;48.256;10.084;2023-05-23T03:02:58;17.75;;;13.13;;
21681;SDS011;11002;48.256;10.084;2023-05-23T03:05:26;16.52;;;13.30;;
21681;SDS011;11002;48.256;10.084;2023-05-23T03:07:53;15.02;;;11.75;;
21681;SDS011;11002;48.256;10.084;2023-05-23T03:10:21;15.55;;;13.25;;
21681;SDS011;11002;48.256;10.084;2023-05-23T03:12:49;18.77;;;15.38;;
21681;SDS011;11002;48.256;10.084;2023-05-23T03:15:16;12.43;;;11.00;;
21681;SDS011;11002;48.256;10.084;2023-05-23T03:17:44;19.55;;;14.48;;
21681;SDS011;11002;48.256;10.084;2023-05-23T03:20:14;19.25;;;13.43;;
21681;SDS011;11002;48.256;10.084;2023-05-23T03:22:41;20.45;;;15.30;;
21681;SDS011;11002;48.256;10.084;2023-05-23T03:25:09;19.52;;;15.57;;
21681;SDS011;11002;48.256;10.084;2023-05-23T03:27:38;20.20;;;15.27;;
21681;SDS011;11002;48.256;10.084;2023-05-23T03:30:06;14.77;;;12.43;;
21681;SDS011;11002;48.256;10.084;2023-05-23T03:32:35;19.13;;;14.43;;
21681;SDS011;11002;48.256;10.084;2023-05-23T03:35:02;19.52;;;15.32;;
21681;SDS011;11002;48.256;10.084;2023-05-23T03:37:30;19.33;;;14.88;;
21681;SDS011;11002;48.256;10.084;2023-05-23T03:39:57;18.83;;;14.75;;
21681;SDS011;11002;48.256;10.084;2023-05-23T03:42:24;20.75;;;14.15;;
21681;SDS011;11002;48.256;10.084;2023-05-23T03:44:53;20.73;;;15.52;;
21681;SDS011;11002;48.256;10.084;2023-05-23T03:47:21;19.60;;;15.18;;
21681;SDS011;11002;48.256;10.084;2023-05-23T03:49:49;21.65;;;14.93;;
21681;SDS011;11002;48.256;10.084;2023-05-23T03:52:16;19.70;;;15.20;;
21681;SDS011;11002;48.256;10.084;2023-05-23T03:54:44;23.60;;;15.95;;
21681;SDS011;11002;48.256;10.084;2023-05-23T03:57:11;20.23;;;15.57;;
21681;SDS011;11002;48.256;10.084;2023-05-23T03:59:39;23.63;;;15.93;;
21681;SDS011;11002;48.256;10.084;2023-05-23T04:02:11;24.33;;;15.95;;
21681;SDS011;11002;48.256;10.084;2023-05-23T04:04:38;23.27;;;16.75;;
21681;SDS011;11002;48.256;10.084;2023-05-23T04:07:05;23.67;;;18.38;;
21681;SDS011;11002;48.256;10.084;2023-05-23T04:09:34;26.08;;;19.40;;
21681;SDS011;11002;48.256;10.084;2023-05-23T04:12:05;25.83;;;18.60;;
21681;SDS011;11002;48.256;10.084;2023-05-23T04:14:34;28.88;;;19.30;;
21681;SDS011;11002;48.256;10.084;2023-05-23T04:17:01;27.70;;;20.00;;
21681;SDS011;11002;48.256;10.084;2023-05-23T04:19:30;29.60;;;19.40;;
21681;SDS011;11002;48.256;10.084;2023-05-23T04:21:58;32.03;;;18.88;;
21681;SDS011;11002;48.256;10.084;2023-05-23T04:24:25;25.65;;;18.30;;
21681;SDS011;11002;48.256;10.084;2023-05-23T04:26:52;23.33;;;17.23;;
21681;SDS011;11002;48.256;10.084;2023-05-23T04:29:21;23.50;;;17.05;;
21681;SDS011;11002;48.256;10.084;2023-05-23T04:31:50;23.98;;;17.70;;
21681;SDS011;11002;48.256;10.084;2023-05-23T04:34:19;21.73;;;17.20;;
21681;SDS011;11002;48.256;10.084;2023-05-23T04:36:48;23.35;;;16.40;;
21681;SDS011;11002;48.256;10.084;2023-05-23T04:39:18;18.85;;;15.52;;
21681;SDS011;11002;48.256;10.084;2023-05-23T04:42:15;22.88;;;16.73;;
21681;SDS011;11002;48.256;10.084;2023-05-23T04:44:53;25.98;;;17.80;;
21681;SDS011;11002;48.256;10.084;2023-05-23T04:47:38;25.60;;;18.40;;
21681;SDS011;11002;48.256;10.084;2023-05-23T04:50:08;24.08;;;17.75;;
21681;SDS011;11002;48.256;10.084;2023-05-23T04:52:38;26.08;;;18.48;;
21681;SDS011;11002;48.256;10.084;2023-05-23T04:55:05;22.83;;;18.13;;
21681;SDS011;11002;48.256;10.084;2023-05-23T04:57:34;23.83;;;17.73;;
21681;SDS011;11002;48.256;10.084;2023-05-23T05:00:04;24.92;;;18.70;;
21681;SDS011;11002;48.256;10.084;2023-05-23T05:02:35;27.35;;;19.30;;
21681;SDS011;11002;48.256;10.084;2023-05-23T05:05:03;23.38;;;18.83;;
21681;SDS011;11002;48.256;10.084;2023-05-23T05:07:30;24.10;;;17.65;;
21681;SDS011;11002;48.256;10.084;2023-05-23T05:10:02;27.60;;;18.30;;
21681;SDS011;11002;48.256;10.084;2023-05-23T05:12:32;24.65;;;18.38;;
21681;SDS011;11002;48.256;10.084;2023-05-23T05:14:59;25.80;;;18.80;;
21681;SDS011;11002;48.256;10.084;2023-05-23T05:17:30;25.48;;;17.58;;
21681;SDS011;11002;48.256;10.084;2023-05-23T05:20:04;25.02;;;18.60;;
21681;SDS011;11002;48.256;10.084;2023-05-23T05:22:34;25.67;;;18.58;;
21681;SDS011;11002;48.256;10.084;2023-05-23T05:25:07;26.45;;;18.90;;
21681;SDS011;11002;48.256;10.084;2023-05-23T05:27:35;26.67;;;19.45;;
21681;SDS011;11002;48.256;10.084;2023-05-23T05:30:05;26.63;;;19.65;;
21681;SDS011;11002;48.256;10.084;2023-05-23T05:32:41;25.98;;;19.02;;
21681;SDS011;11002;48.256;10.084;2023-05-23T05:35:10;29.08;;;20.02;;
21681;SDS011;11002;48.256;10.084;2023-05-23T05:37:40;30.38;;;21.17;;
21681;SDS011;11002;48.256;10.084;2023-05-23T05:40:10;33.53;;;20.98;;
21681;SDS011;11002;48.256;10.084;2023-05-23T05:42:41;30.05;;;21.10;;
21681;SDS011;11002;48.256;10.084;2023-05-23T05:45:09;30.95;;;21.98;;
21681;SDS011;11002;48.256;10.084;2023-05-23T05:47:38;30.10;;;22.15;;
21681;SDS011;11002;48.256;10.084;2023-05-23T05:50:06;32.80;;;22.65;;
21681;SDS011;11002;48.256;10.084;2023-05-23T05:52:35;30.08;;;21.77;;
21681;SDS011;11002;48.256;10.084;2023-05-23T05:55:06;27.58;;;21.20;;
21681;SDS011;11002;48.256;10.084;2023-05-23T05:57:38;32.53;;;23.38;;
21681;SDS011;11002;48.256;10.084;2023-05-23T06:00:07;30.27;;;22.45;;
21681;SDS011;11002;48.256;10.084;2023-05-23T06:02:44;33.33;;;21.70;;
21681;SDS011;11002;48.256;10.084;2023-05-23T06:05:16;38.20;;;23.60;;
21681;SDS011;11002;48.256;10.084;2023-05-23T06:07:46;34.83;;;23.58;;
21681;SDS011;11002;48.256;10.084;2023-05-23T06:10:14;33.58;;;23.58;;
21681;SDS011;11002;48.256;10.084;2023-05-23T06:12:43;33.15;;;24.20;;
21681;SDS011;11002;48.256;10.084;2023-05-23T06:15:11;31.92;;;22.92;;
21681;SDS011;11002;48.256;10.084;2023-05-23T06:17:39;35.35;;;23.58;;
21681;SDS011;11002;48.256;10.084;2023-05-23T06:20:07;32.17;;;22.65;;
21681;SDS011;11002;48.256;10.084;2023-05-23T06:22:37;35.83;;;23.95;;
21681;SDS011;11002;48.256;10.084;2023-05-23T06:25:05;28.77;;;21.92;;
21681;SDS011;11002;48.256;10.084;2023-05-23T06:27:33;34.13;;;23.38;;
21681;SDS011;11002;48.256;10.084;2023-05-23T06:30:03;30.67;;;22.85;;
21681;SDS011;11002;48.256;10.084;2023-05-23T06:32:31;32.90;;;23.48;;
21681;SDS011;11002;48.256;10.084;2023-05-23T06:34:58;32.47;;;23.13;;
21681;SDS011;11002;48.256;10.084;2023-05-23T06:37:25;36.72;;;24.85;;
21681;SDS011;11002;48.256;10.084;2023-05-23T06:39:52;35.75;;;23.80;;
21681;SDS011;11002;48.256;10.084;2023-05-23T06:42:20;36.58;;;25.38;;
21681;SDS011;11002;48.256;10.084;2023-05-23T06:45:03;38.85;;;26.83;;
21681;SDS011;11002;48.256;10.084;2023-05-23T06:47:31;39.90;;;26.48;;
21681;SDS011;11002;48.256;10.084;2023-05-23T06:50:01;42.42;;;26.63;;
21681;SDS011;11002;48.256;10.084;2023-05-23T06:52:30;37.83;;;25.25;;
21681;SDS011;11002;48.256;10.084;2023-05-23T06:54:58;41.97;;;27.73;;
21681;SDS011;11002;48.256;10.084;2023-05-23T06:57:25;36.47;;;23.70;;
21681;SDS011;11002;48.256;10.084;2023-05-23T06:59:53;36.85;;;24.98;;
21681;SDS011;11002;48.256;10.084;2023-05-23T07:02:21;33.00;;;24.17;;
21681;SDS011;11002;48.256;10.084;2023-05-23T07:04:49;37.78;;;26.23;;
21681;SDS011;11002;48.256;10.084;2023-05-23T07:07:33;35.92;;;26.60;;
21681;SDS011;11002;48.256;10.084;2023-05-23T07:10:01;42.08;;;25.63;;
21681;SDS011;11002;48.256;10.084;2023-05-23T07:12:28;35.47;;;26.48;;
21681;SDS011;11002;48.256;10.084;2023-05-23T07:14:56;40.80;;;26.55;;
21681;SDS011;11002;48.256;10.084;2023-05-23T07:17:26;45.88;;;27.65;;
21681;SDS011;11002;48.256;10.084;2023-05-23T07:19:54;38.28;;;25.48;;
21681;SDS011;11002;48.256;10.084;2023-05-23T07:22:22;40.35;;;26.80;;
21681;SDS011;11002;48.256;10.084;2023-05-23T07:24:50;40.83;;;26.27;;
21681;SDS011;11002;48.256;10.084;2023-05-23T07:27:19;40.33;;;27.50;;
21681;SDS011;11002;48.256;10.084;2023-05-23T07:29:47;38.20;;;26.60;;
21681;SDS011;11002;48.256;10.084;2023-05-23T07:32:15;40.55;;;25.80;;
21681;SDS011;11002;48.256;10.084;2023-05-23T07:34:45;41.42;;;26.08;;
21681;SDS011;11002;48.256;10.084;2023-05-23T07:37:12;36.65;;;27.40;;
21681;SDS011;11002;48.256;10.084;2023-05-23T07:39:42;36.20;;;25.75;;
21681;SDS011;11002;48.256;10.084;2023-05-23T07:42:10;32.75;;;23.77;;
21681;SDS011;11002;48.256;10.084;2023-05-23T07:44:37;41.63;;;28.90;;
21681;SDS011;11002;48.256;10.084;2023-05-23T07:47:08;36.28;;;24.77;;
21681;SDS011;11002;48.256;10.084;2023-05-23T07:49:35;40.55;;;25.45;;
21681;SDS011;11002;48.256;10.084;2023-05-23T07:52:04;36.92;;;25.13;;
21681;SDS011;11002;48.256;10.084;2023-05-23T07:54:33;35.42;;;23.95;;
21681;SDS011;11002;48.256;10.084;2023-05-23T07:57:02;37.65;;;25.45;;
21681;SDS011;11002;48.256;10.084;2023-05-23T07:59:32;37.45;;;26.60;;
21681;SDS011;11002;48.256;10.084;2023-05-23T08:02:00;34.65;;;25.42;;
21681;SDS011;11002;48.256;10.084;2023-05-23T08:04:28;38.92;;;26.42;;
21681;SDS011;11002;48.256;10.084;2023-05-23T08:06:56;37.15;;;26.77;;
21681;SDS011;11002;48.256;10.084;2023-05-23T08:09:30;37.40;;;26.88;;
21681;SDS011;11002;48.256;10.084;2023-05-23T08:11:58;40.70;;;25.85;;
21681;SDS011;11002;48.256;10.084;2023-05-23T08:14:25;41.20;;;27.05;;
21681;SDS011;11002;48.256;10.084;2023-05-23T08:17:00;39.47;;;27.50;;
21681;SDS011;11002;48.256;10.084;2023-05-23T08:19:29;38.97;;;27.42;;
21681;SDS011;11002;48.256;10.084;2023-05-23T08:21:56;38.17;;;26.85;;
21681;SDS011;11002;48.256;10.084;2023-05-23T08:24:23;38.45;;;25.90;;
21681;SDS011;11002;48.256;10.084;2023-05-23T08:26:52;37.85;;;26.52;;
21681;SDS011;11002;48.256;10.084;2023-05-23T08:29:20;39.90;;;26.42;;
21681;SDS011;11002;48.256;10.084;2023-05-23T08:31:48;39.60;;;26.65;;
21681;SDS011;11002;48.256;10.084;2023-05-23T08:34:15;40.08;;;25.73;;
21681;SDS011;11002;48.256;10.084;2023-05-23T08:36:42;40.95;;;27.20;;
21681;SDS011;11002;48.256;10.084;2023-05-23T08:39:15;38.83;;;26.38;;
21681;SDS011;11002;48.256;10.084;2023-05-23T08:41:54;40.78;;;28.83;;
21681;SDS011;11002;48.256;10.084;2023-05-23T08:44:22;39.65;;;27.33;;
21681;SDS011;11002;48.256;10.084;2023-05-23T08:46:54;38.38;;;25.50;;
21681;SDS011;11002;48.256;10.084;2023-05-23T08:49:41;41.42;;;26.85;;
21681;SDS011;11002;48.256;10.084;2023-05-23T08:52:10;41.63;;;28.90;;
21681;SDS011;11002;48.256;10.084;2023-05-23T08:54:41;40.53;;;27.55;;
21681;SDS011;11002;48.256;10.084;2023-05-23T08:57:13;42.40;;;28.27;;
21681;SDS011;11002;48.256;10.084;2023-05-23T08:59:45;42.27;;;28.73;;
21681;SDS011;11002;48.256;10.084;2023-05-23T09:02:13;41.40;;;27.92;;
21681;SDS011;11002;48.256;10.084;2023-05-23T09:04:44;47.45;;;30.08;;
21681;SDS011;11002;48.256;10.084;2023-05-23T09:07:20;43.63;;;29.02;;
21681;SDS011;11002;48.256;10.084;2023-05-23T09:09:48;44.42;;;29.63;;
21681;SDS011;11002;48.256;10.084;2023-05-23T09:12:18;41.15;;;27.42;;
21681;SDS011;11002;48.256;10.084;2023-05-23T09:14:47;45.90;;;29.45;;
21681;SDS011;11002;48.256;10.084;2023-05-23T09:17:15;41.10;;;27.33;;
21681;SDS011;11002;48.256;10.084;2023-05-23T09:19:45;45.85;;;29.30;;
21681;SDS011;11002;48.256;10.084;2023-05-23T09:22:23;47.33;;;29.55;;
21681;SDS011;11002;48.256;10.084;2023-05-23T09:25:13;49.53;;;31.45;;
21681;SDS011;11002;48.256;10.084;2023-05-23T09:27:44;43.92;;;28.90;;
21681;SDS011;11002;48.256;10.084;2023-05-23T09:30:11;43.97;;;29.35;;
21681;SDS011;11002;48.256;10.084;2023-05-23T09:32:39;43.20;;;28.98;;
21681;SDS011;11002;48.256;10.084;2023-05-23T09:35:09;43.42;;;29.10;;
21681;SDS011;11002;48.256;10.084;2023-05-23T09:37:38;40.53;;;26.45;;
21681;SDS011;11002;48.256;10.084;2023-05-23T09:40:10;37.50;;;27.73;;
21681;SDS011;11002;48.256;10.084;2023-05-23T09:42:47;35.58;;;24.45;;
21681;SDS011;11002;48.256;10.084;2023-05-23T09:45:16;28.98;;;22.42;;
21681;SDS011;11002;48.256;10.084;2023-05-23T09:47:48;28.67;;;21.10;;
21681;SDS011;11002;48.256;10.084;2023-05-23T09:50:16;30.35;;;22.30;;
21681;SDS011;11002;48.256;10.084;2023-05-23T09:52:44;28.98;;;20.90;;
21681;SDS011;11002;48.256;10.084;2023-05-23T09:55:12;28.20;;;21.45;;
21681;SDS011;11002;48.256;10.084;2023-05-23T09:57:40;23.00;;;18.98;;
21681;SDS011;11002;48.256;10.084;2023-05-23T10:00:11;26.38;;;19.65;;
21681;SDS011;11002;48.256;10.084;2023-05-23T10:02:52;22.00;;;17.95;;
21681;SDS011;11002;48.256;10.084;2023-05-23T10:05:32;20.73;;;17.27;;
21681;SDS011;11002;48.256;10.084;2023-05-23T10:08:01;23.02;;;18.17;;
21681;SDS011;11002;48.256;10.084;2023-05-23T10:10:32;19.13;;;16.02;;
21681;SDS011;11002;48.256;10.084;2023-05-23T10:13:01;20.20;;;17.73;;
21681;SDS011;11002;48.256;10.084;2023-05-23T10:15:35;20.42;;;17.60;;
21681;SDS011;11002;48.256;10.084;2023-05-23T10:18:08;22.30;;;15.73;;
21681;SDS011;11002;48.256;10.084;2023-05-23T10:20:42;20.45;;;16.95;;
21681;SDS011;11002;48.256;10.084;2023-05-23T10:23:14;23.40;;;17.05;;
21681;SDS011;11002;48.256;10.084;2023-05-23T10:25:42;20.23;;;16.60;;
21681;SDS011;11002;48.256;10.084;2023-05-23T10:28:10;20.95;;;18.67;;
21681;SDS011;11002;48.256;10.084;2023-05-23T10:30:41;22.05;;;15.43;;
21681;SDS011;11002;48.256;10.084;2023-05-23T10:33:09;21.83;;;16.83;;
21681;SDS011;11002;48.256;10.084;2023-05-23T10:35:41;20.65;;;16.38;;
21681;SDS011;11002;48.256;10.084;2023-05-23T10:38:17;18.98;;;14.68;;
21681;SDS011;11002;48.256;10.084;2023-05-23T10:40:56;17.80;;;15.82;;
21681;SDS011;11002;48.256;10.084;2023-05-23T10:43:33;19.33;;;15.60;;
21681;SDS011;11002;48.256;10.084;2023-05-23T10:46:09;22.52;;;15.57;;
21681;SDS011;11002;48.256;10.084;2023-05-23T10:48:40;24.13;;;17.70;;
21681;SDS011;11002;48.256;10.084;2023-05-23T10:51:08;21.38;;;17.70;;
21681;SDS011;11002;48.256;10.084;2023-05-23T10:53:40;20.27;;;16.35;;
21681;SDS011;11002;48.256;10.084;2023-05-23T10:56:08;22.77;;;16.60;;
21681;SDS011;11002;48.256;10.084;2023-05-23T10:58:37;19.85;;;17.35;;
21681;SDS011;11002;48.256;10.084;2023-05-23T11:01:06;20.67;;;16.77;;
21681;SDS011;11002;48.256;10.084;2023-05-23T11:03:36;21.73;;;17.70;;
21681;SDS011;11002;48.256;10.084;2023-05-23T11:06:27;24.60;;;19.33;;
21681;SDS011;11002;48.256;10.084;2023-05-23T11:09:00;19.92;;;16.52;;
21681;SDS011;11002;48.256;10.084;2023-05-23T11:14:18;23.30;;;17.88;;
21681;SDS011;11002;48.256;10.084;2023-05-23T11:16:46;21.35;;;16.73;;
21681;SDS011;11002;48.256;10.084;2023-05-23T11:19:21;18.10;;;16.15;;
21681;SDS011;11002;48.256;10.084;2023-05-23T11:21:53;22.45;;;18.35;;
21681;SDS011;11002;48.256;10.084;2023-05-23T11:24:22;21.70;;;18.45;;
21681;SDS011;11002;48.256;10.084;2023-05-23T11:26:53;19.50;;;17.50;;
21681;SDS011;11002;48.256;10.084;2023-05-23T11:29:25;23.17;;;19.52;;
21681;SDS011;11002;48.256;10.084;2023-05-23T11:31:54;21.88;;;18.52;;
21681;SDS011;11002;48.256;10.084;2023-05-23T11:34:22;22.52;;;18.25;;
21681;SDS011;11002;48.256;10.084;2023-05-23T11:36:52;29.17;;;19.70;;
21681;SDS011;11002;48.256;10.084;2023-05-23T11:39:20;20.17;;;16.92;;
21681;SDS011;11002;48.256;10.084;2023-05-23T11:41:49;18.40;;;16.42;;
21681;SDS011;11002;48.256;10.084;2023-05-23T11:44:24;17.67;;;15.82;;
21681;SDS011;11002;48.256;10.084;2023-05-23T11:47:01;16.60;;;13.70;;
21681;SDS011;11002;48.256;10.084;2023-05-23T11:49:30;14.75;;;13.18;;
21681;SDS011;11002;48.256;10.084;2023-05-23T11:52:00;16.15;;;14.45;;
21681;SDS011;11002;48.256;10.084;2023-05-23T11:54:28;16.67;;;12.85;;
21681;SDS011;11002;48.256;10.084;2023-05-23T11:56:56;16.13;;;14.15;;
21681;SDS011;11002;48.256;10.084;2023-05-23T11:59:24;14.60;;;13.05;;
21681;SDS011;11002;48.256;10.084;2023-05-23T12:01:52;14.48;;;11.98;;
21681;SDS011;11002;48.256;10.084;2023-05-23T12:04:20;15.43;;;13.93;;
21681;SDS011;11002;48.256;10.084;2023-05-23T12:06:49;16.67;;;13.85;;
21681;SDS011;11002;48.256;10.084;2023-05-23T12:09:16;17.60;;;14.80;;
21681;SDS011;11002;48.256;10.084;2023-05-23T12:11:44;17.13;;;14.02;;
21681;SDS011;11002;48.256;10.084;2023-05-23T12:14:15;14.77;;;12.95;;
21681;SDS011;11002;48.256;10.084;2023-05-23T12:16:43;15.02;;;13.43;;
21681;SDS011;11002;48.256;10.084;2023-05-23T12:19:12;14.20;;;12.73;;
21681;SDS011;11002;48.256;10.084;2023-05-23T12:21:41;13.55;;;11.50;;
21681;SDS011;11002;48.256;10.084;2023-05-23T12:24:13;14.00;;;10.23;;
21681;SDS011;11002;48.256;10.084;2023-05-23T12:26:45;12.85;;;10.80;;
21681;SDS011;11002;48.256;10.084;2023-05-23T12:29:14;10.93;;;9.52;;
21681;SDS011;11002;48.256;10.084;2023-05-23T12:31:43;12.95;;;11.40;;
21681;SDS011;11002;48.256;10.084;2023-05-23T12:34:11;11.98;;;10.68;;
21681;SDS011;11002;48.256;10.084;2023-05-23T12:36:38;12.38;;;11.18;;
21681;SDS011;11002;48.256;10.084;2023-05-23T12:39:07;11.55;;;10.45;;
21681;SDS011;11002;48.256;10.084;2023-05-23T12:41:36;12.57;;;9.50;;
21681;SDS011;11002;48.256;10.084;2023-05-23T12:44:03;10.57;;;9.48;;
21681;SDS011;11002;48.256;10.084;2023-05-23T12:46:30;11.05;;;10.00;;
21681;SDS011;11002;48.256;10.084;2023-05-23T12:48:57;13.75;;;11.35;;
21681;SDS011;11002;48.256;10.084;2023-05-23T12:51:25;11.52;;;9.95;;
21681;SDS011;11002;48.256;10.084;2023-05-23T12:53:52;12.10;;;10.82;;
21681;SDS011;11002;48.256;10.084;2023-05-23T12:56:20;11.82;;;10.70;;
21681;SDS011;11002;48.256;10.084;2023-05-23T12:58:49;14.57;;;10.73;;
21681;SDS011;11002;48.256;10.084;2023-05-23T13:01:18;11.65;;;10.13;;
21681;SDS011;11002;48.256;10.084;2023-05-23T13:03:45;12.30;;;10.13;;
21681;SDS011;11002;48.256;10.084;2023-05-23T13:06:13;13.02;;;10.18;;
21681;SDS011;11002;48.256;10.084;2023-05-23T13:08:40;13.35;;;11.07;;
21681;SDS011;11002;48.256;10.084;2023-05-23T13:11:08;12.05;;;10.20;;
21681;SDS011;11002;48.256;10.084;2023-05-23T13:13:36;9.85;;;8.80;;
21681;SDS011;11002;48.256;10.084;2023-05-23T13:16:04;10.77;;;9.68;;
21681;SDS011;11002;48.256;10.084;2023-05-23T13:18:32;10.23;;;9.13;;
21681;SDS011;11002;48.256;10.084;2023-05-23T13:20:59;10.75;;;8.57;;
21681;SDS011;11002;48.256;10.084;2023-05-23T13:23:27;11.73;;;8.73;;
21681;SDS011;11002;48.256;10.084;2023-05-23T13:25:55;10.40;;;9.02;;
21681;SDS011;11002;48.256;10.084;2023-05-23T13:28:22;9.38;;;8.48;;
21681;SDS011;11002;48.256;10.084;2023-05-23T13:30:50;9.13;;;8.23;;
21681;SDS011;11002;48.256;10.084;2023-05-23T13:33:18;14.23;;;9.00;;
21681;SDS011;11002;48.256;10.084;2023-05-23T13:35:47;14.63;;;11.00;;
21681;SDS011;11002;48.256;10.084;2023-05-23T13:38:16;13.57;;;11.10;;
21681;SDS011;11002;48.256;10.084;2023-05-23T13:40:43;12.73;;;9.85;;
21681;SDS011;11002;48.256;10.084;2023-05-23T13:43:11;11.43;;;9.57;;
21681;SDS011;11002;48.256;10.084;2023-05-23T13:45:38;12.32;;;9.02;;
21681;SDS011;11002;48.256;10.084;2023-05-23T13:48:05;12.25;;;10.13;;
21681;SDS011;11002;48.256;10.084;2023-05-23T13:50:34;13.60;;;11.13;;
21681;SDS011;11002;48.256;10.084;2023-05-23T13:53:01;15.45;;;9.98;;
21681;SDS011;11002;48.256;10.084;2023-05-23T13:55:32;11.52;;;10.27;;
21681;SDS011;11002;48.256;10.084;2023-05-23T13:57:59;13.07;;;10.55;;
21681;SDS011;11002;48.256;10.084;2023-05-23T14:00:26;12.75;;;10.10;;
21681;SDS011;11002;48.256;10.084;2023-05-23T14:02:53;12.00;;;9.98;;
21681;SDS011;11002;48.256;10.084;2023-05-23T14:05:21;12.32;;;10.85;;
21681;SDS011;11002;48.256;10.084;2023-05-23T14:07:49;12.85;;;11.45;;
21681;SDS011;11002;48.256;10.084;2023-05-23T14:10:17;12.13;;;10.68;;
21681;SDS011;11002;48.256;10.084;2023-05-23T14:12:45;12.60;;;10.05;;
21681;SDS011;11002;48.256;10.084;2023-05-23T14:15:12;14.75;;;11.30;;
21681;SDS011;11002;48.256;10.084;2023-05-23T14:17:39;14.00;;;10.73;;
21681;SDS011;11002;48.256;10.084;2023-05-23T14:20:07;11.27;;;10.07;;
21681;SDS011;11002;48.256;10.084;2023-05-23T14:22:35;15.18;;;10.82;;
21681;SDS011;11002;48.256;10.084;2023-05-23T14:25:04;12.00;;;10.27;;